Aérodrome :
LOGIN :

S'inscrire | Disclaimer

   EN    FR    IT 

 










Légende :    VFR   VFR Marginal   IFR   IFR Intensif   IFR Très Intensif
Visi : 
Plafond : 
>= 8 km
>= 3000ft
5 à 8 km
1000 à 3000 ft
1500m à 5 km
500 à 1000 ft
800 à 1500m
200 à 500 ft
< 800m
< 200 ft
Symboles :   Orages  Brouillard  Fortes neiges  Fortes précipitations  Vent > 20 kt
SIGMETs :   Divers  Orages  Givrage  Turbulence  Onde Orograph.  Cendres Volcan.







- Altitude de l'aérodrome : 44 ft
- Code IATA : SOU
- Voir les cartes d'approche


EGHI - Southampton

DERNIER METAR :
  • 231750Z 23007KT 9999 FEW048 09/02 Q1005

METARs EXPIRÉS :
  • 231720Z 24006KT 9999 FEW045 09/02 Q1005
  • 231650Z 25009KT 220V290 9999 FEW045 09/02 Q1005
  • 231620Z 24009KT 200V270 9999 FEW045 10/02 Q1004
  • 231550Z 24009KT 9999 FEW045 10/02 Q1004
  • 231520Z 25014KT 9999 FEW044 10/02 Q1003

TAF TAF EGHI
Valide du 23 à 18h jusqu'au 23 à 23h UTC


231657Z 2318/2323 24005KT 9999 SCT040
TEMPO 2321/2323 6000 RA
ATIS : +44 23 8062 7103
Pas de NOTAMs connus pour ce terrain.



MET'MAP, la Météo Aéronautique d'un coup d'oeil ! - Copyright ORBIFLY Décembre 2007 - Disclaimer

ORBIFLY MET'MAP TEAM :

Programmation & Développement : Alexandra Zaïnal
Conception & Développement : Baudouin d'Aumeries
Co-Programmation & Développement : Marc-Olivier Méhu
Soutien technique & logistique : Manuel Goepfert

Contact : metmap@orbifly.com




SOURCES & CREDITS :

   NOAA